sensor_id;sensor_type;location;lat;lon;timestamp;pressure;altitude;pressure_sealevel;temperature;humidity
54806;BME280;62866;55.776;37.496;2023-06-26T00:00:13;99714.22;;;18.25;62.10
54806;BME280;62866;55.776;37.496;2023-06-26T00:02:38;99698.72;;;18.20;62.22
54806;BME280;62866;55.776;37.496;2023-06-26T00:05:04;99693.22;;;18.15;62.57
54806;BME280;62866;55.776;37.496;2023-06-26T00:07:30;99705.78;;;18.22;62.51
54806;BME280;62866;55.776;37.496;2023-06-26T00:09:57;99714.13;;;18.20;62.76
54806;BME280;62866;55.776;37.496;2023-06-26T00:12:23;99700.16;;;18.11;62.86
54806;BME280;62866;55.776;37.496;2023-06-26T00:14:49;99708.38;;;18.16;62.97
54806;BME280;62866;55.776;37.496;2023-06-26T00:17:14;99707.81;;;18.14;63.13
54806;BME280;62866;55.776;37.496;2023-06-26T00:19:40;99686.66;;;18.00;63.22
54806;BME280;62866;55.776;37.496;2023-06-26T00:22:05;99697.38;;;18.06;63.19
54806;BME280;62866;55.776;37.496;2023-06-26T00:24:31;99694.66;;;18.06;63.31
54806;BME280;62866;55.776;37.496;2023-06-26T00:26:56;99703.09;;;18.10;63.10
54806;BME280;62866;55.776;37.496;2023-06-26T00:29:22;99695.84;;;17.99;63.21
54806;BME280;62866;55.776;37.496;2023-06-26T00:31:47;99690.91;;;17.96;63.65
54806;BME280;62866;55.776;37.496;2023-06-26T00:34:13;99706.19;;;18.02;63.81
54806;BME280;62866;55.776;37.496;2023-06-26T00:36:40;99676.25;;;17.80;63.83
54806;BME280;62866;55.776;37.496;2023-06-26T00:39:09;99687.53;;;17.89;64.23
54806;BME280;62866;55.776;37.496;2023-06-26T00:41:38;99687.03;;;17.92;64.10
54806;BME280;62866;55.776;37.496;2023-06-26T00:44:07;99694.53;;;18.01;64.29
54806;BME280;62866;55.776;37.496;2023-06-26T00:46:33;99708.66;;;18.03;64.47
54806;BME280;62866;55.776;37.496;2023-06-26T00:49:00;99705.72;;;18.05;64.28
54806;BME280;62866;55.776;37.496;2023-06-26T00:51:29;99713.72;;;18.00;63.44
54806;BME280;62866;55.776;37.496;2023-06-26T00:53:55;99707.59;;;18.04;64.03
54806;BME280;62866;55.776;37.496;2023-06-26T00:56:21;99705.22;;;18.08;64.19
54806;BME280;62866;55.776;37.496;2023-06-26T00:58:47;99696.53;;;18.06;64.32
54806;BME280;62866;55.776;37.496;2023-06-26T01:01:13;99685.84;;;17.99;64.17
54806;BME280;62866;55.776;37.496;2023-06-26T01:03:43;99699.25;;;18.06;64.51
54806;BME280;62866;55.776;37.496;2023-06-26T01:06:11;99701.47;;;18.09;64.45
54806;BME280;62866;55.776;37.496;2023-06-26T01:08:41;99690.44;;;17.99;64.38
54806;BME280;62866;55.776;37.496;2023-06-26T01:11:07;99695.94;;;18.04;64.30
54806;BME280;62866;55.776;37.496;2023-06-26T01:13:34;99691.84;;;18.01;64.29
54806;BME280;62866;55.776;37.496;2023-06-26T01:16:01;99687.25;;;18.02;64.32
54806;BME280;62866;55.776;37.496;2023-06-26T01:18:27;99703.34;;;18.08;64.85
54806;BME280;62866;55.776;37.496;2023-06-26T01:20:55;99699.00;;;18.07;64.97
54806;BME280;62866;55.776;37.496;2023-06-26T01:23:38;99684.53;;;18.02;65.03
54806;BME280;62866;55.776;37.496;2023-06-26T01:26:22;99686.41;;;18.01;64.93
54806;BME280;62866;55.776;37.496;2023-06-26T01:28:50;99690.78;;;18.02;64.80
54806;BME280;62866;55.776;37.496;2023-06-26T01:31:17;99688.31;;;18.01;64.99
54806;BME280;62866;55.776;37.496;2023-06-26T01:33:43;99685.97;;;17.93;65.20
54806;BME280;62866;55.776;37.496;2023-06-26T01:36:10;99689.25;;;17.95;65.27
54806;BME280;62866;55.776;37.496;2023-06-26T01:38:35;99687.38;;;17.95;65.42
54806;BME280;62866;55.776;37.496;2023-06-26T01:41:01;99690.09;;;17.95;65.74
54806;BME280;62866;55.776;37.496;2023-06-26T01:46:21;99695.88;;;17.87;65.77
54806;BME280;62866;55.776;37.496;2023-06-26T01:51:38;99701.06;;;17.89;65.92
54806;BME280;62866;55.776;37.496;2023-06-26T01:54:10;99678.00;;;17.74;66.32
54806;BME280;62866;55.776;37.496;2023-06-26T01:56:38;99700.56;;;17.92;66.18
54806;BME280;62866;55.776;37.496;2023-06-26T01:59:06;99703.84;;;17.94;66.11
54806;BME280;62866;55.776;37.496;2023-06-26T02:01:33;99709.03;;;17.95;65.98
54806;BME280;62866;55.776;37.496;2023-06-26T02:03:59;99687.28;;;17.90;66.18
54806;BME280;62866;55.776;37.496;2023-06-26T02:06:25;99698.78;;;17.97;66.44
54806;BME280;62866;55.776;37.496;2023-06-26T02:08:50;99690.91;;;17.96;66.56
54806;BME280;62866;55.776;37.496;2023-06-26T02:11:16;99691.50;;;17.98;66.25
54806;BME280;62866;55.776;37.496;2023-06-26T02:13:41;99704.66;;;18.06;66.29
54806;BME280;62866;55.776;37.496;2023-06-26T02:16:06;99691.25;;;17.99;66.29
54806;BME280;62866;55.776;37.496;2023-06-26T02:18:32;99693.59;;;18.07;66.27
54806;BME280;62866;55.776;37.496;2023-06-26T02:20:57;99705.44;;;18.18;66.24
54806;BME280;62866;55.776;37.496;2023-06-26T02:23:23;99701.19;;;18.22;66.59
54806;BME280;62866;55.776;37.496;2023-06-26T02:25:48;99686.72;;;18.16;66.36
54806;BME280;62866;55.776;37.496;2023-06-26T02:28:14;99705.06;;;18.26;66.36
54806;BME280;62866;55.776;37.496;2023-06-26T02:30:39;99705.63;;;18.40;65.99
54806;BME280;62866;55.776;37.496;2023-06-26T02:33:05;99678.22;;;18.25;65.41
54806;BME280;62866;55.776;37.496;2023-06-26T02:35:30;99693.97;;;18.39;65.51
54806;BME280;62866;55.776;37.496;2023-06-26T02:37:58;99706.38;;;18.52;65.53
54806;BME280;62866;55.776;37.496;2023-06-26T02:40:23;99655.78;;;18.24;65.28
54806;BME280;62866;55.776;37.496;2023-06-26T02:42:49;99710.94;;;18.63;65.58
54806;BME280;62866;55.776;37.496;2023-06-26T02:45:14;99689.06;;;18.53;65.81
54806;BME280;62866;55.776;37.496;2023-06-26T02:47:40;99709.50;;;18.72;65.59
54806;BME280;62866;55.776;37.496;2023-06-26T02:50:06;99690.81;;;18.59;65.96
54806;BME280;62866;55.776;37.496;2023-06-26T02:52:32;99705.63;;;18.68;66.38
54806;BME280;62866;55.776;37.496;2023-06-26T02:54:57;99721.38;;;18.71;65.91
54806;BME280;62866;55.776;37.496;2023-06-26T02:57:23;99714.41;;;18.75;64.72
54806;BME280;62866;55.776;37.496;2023-06-26T02:59:48;99704.06;;;18.72;64.42
54806;BME280;62866;55.776;37.496;2023-06-26T03:02:14;99708.44;;;18.73;64.47
54806;BME280;62866;55.776;37.496;2023-06-26T03:04:39;99715.81;;;18.78;64.88
54806;BME280;62866;55.776;37.496;2023-06-26T03:07:05;99716.25;;;18.86;64.59
54806;BME280;62866;55.776;37.496;2023-06-26T03:09:30;99717.41;;;18.90;65.59
54806;BME280;62866;55.776;37.496;2023-06-26T03:11:56;99712.13;;;19.01;65.49
54806;BME280;62866;55.776;37.496;2023-06-26T03:14:21;99713.72;;;19.13;65.23
54806;BME280;62866;55.776;37.496;2023-06-26T03:16:47;99714.38;;;19.20;65.03
54806;BME280;62866;55.776;37.496;2023-06-26T03:19:13;99716.69;;;19.28;64.82
54806;BME280;62866;55.776;37.496;2023-06-26T03:21:38;99705.41;;;19.37;64.44
54806;BME280;62866;55.776;37.496;2023-06-26T03:24:04;99688.84;;;19.33;64.58
54806;BME280;62866;55.776;37.496;2023-06-26T03:26:30;99707.84;;;19.50;64.53
54806;BME280;62866;55.776;37.496;2023-06-26T03:28:55;99682.50;;;19.27;64.14
54806;BME280;62866;55.776;37.496;2023-06-26T03:31:21;99697.28;;;19.37;64.83
54806;BME280;62866;55.776;37.496;2023-06-26T03:33:46;99698.75;;;19.44;64.60
54806;BME280;62866;55.776;37.496;2023-06-26T03:36:12;99685.56;;;19.48;64.29
54806;BME280;62866;55.776;37.496;2023-06-26T03:38:37;99697.75;;;19.67;64.31
54806;BME280;62866;55.776;37.496;2023-06-26T03:41:03;99686.16;;;19.72;64.08
54806;BME280;62866;55.776;37.496;2023-06-26T03:43:28;99697.47;;;19.85;63.98
54806;BME280;62866;55.776;37.496;2023-06-26T03:45:54;99698.75;;;19.99;63.66
54806;BME280;62866;55.776;37.496;2023-06-26T03:48:19;99680.31;;;20.01;63.07
54806;BME280;62866;55.776;37.496;2023-06-26T03:50:45;99693.31;;;20.21;62.16
54806;BME280;62866;55.776;37.496;2023-06-26T03:53:10;99699.84;;;20.25;62.09
54806;BME280;62866;55.776;37.496;2023-06-26T03:55:37;99692.94;;;20.34;61.12
54806;BME280;62866;55.776;37.496;2023-06-26T03:58:04;99687.63;;;20.44;61.22
54806;BME280;62866;55.776;37.496;2023-06-26T04:00:29;99695.38;;;20.58;61.29
54806;BME280;62866;55.776;37.496;2023-06-26T04:02:55;99692.28;;;20.76;59.76
54806;BME280;62866;55.776;37.496;2023-06-26T04:05:20;99691.66;;;20.96;60.25
54806;BME280;62866;55.776;37.496;2023-06-26T04:07:50;99687.84;;;21.24;58.18
54806;BME280;62866;55.776;37.496;2023-06-26T04:10:15;99689.81;;;21.33;57.67
54806;BME280;62866;55.776;37.496;2023-06-26T04:12:41;99694.28;;;21.49;56.53
54806;BME280;62866;55.776;37.496;2023-06-26T04:15:07;99688.44;;;21.78;55.66
54806;BME280;62866;55.776;37.496;2023-06-26T04:17:32;99672.16;;;21.83;54.91
54806;BME280;62866;55.776;37.496;2023-06-26T04:19:58;99684.28;;;22.07;54.89
54806;BME280;62866;55.776;37.496;2023-06-26T04:22:23;99674.00;;;22.29;53.35
54806;BME280;62866;55.776;37.496;2023-06-26T04:24:50;99674.88;;;22.55;52.19
54806;BME280;62866;55.776;37.496;2023-06-26T04:27:15;99691.31;;;22.86;51.23
54806;BME280;62866;55.776;37.496;2023-06-26T04:29:41;99679.59;;;22.95;50.42
54806;BME280;62866;55.776;37.496;2023-06-26T04:32:07;99677.41;;;23.02;50.28
54806;BME280;62866;55.776;37.496;2023-06-26T04:34:32;99685.03;;;23.11;50.36
54806;BME280;62866;55.776;37.496;2023-06-26T04:36:59;99675.78;;;23.06;49.91
54806;BME280;62866;55.776;37.496;2023-06-26T04:39:25;99686.16;;;23.25;50.07
54806;BME280;62866;55.776;37.496;2023-06-26T04:41:50;99667.59;;;23.12;49.34
54806;BME280;62866;55.776;37.496;2023-06-26T04:44:16;99681.22;;;23.32;48.35
54806;BME280;62866;55.776;37.496;2023-06-26T04:46:41;99685.03;;;23.41;48.30
54806;BME280;62866;55.776;37.496;2023-06-26T04:49:08;99678.75;;;23.40;47.82
54806;BME280;62866;55.776;37.496;2023-06-26T04:51:33;99681.47;;;23.56;48.17
54806;BME280;62866;55.776;37.496;2023-06-26T04:53:59;99682.56;;;23.55;46.75
54806;BME280;62866;55.776;37.496;2023-06-26T04:56:24;99681.19;;;23.62;46.57
54806;BME280;62866;55.776;37.496;2023-06-26T04:58:50;99671.34;;;23.76;46.11
54806;BME280;62866;55.776;37.496;2023-06-26T05:01:15;99670.19;;;23.93;45.49
54806;BME280;62866;55.776;37.496;2023-06-26T05:03:40;99676.09;;;24.15;45.71
54806;BME280;62866;55.776;37.496;2023-06-26T05:06:06;99675.47;;;24.38;45.24
54806;BME280;62866;55.776;37.496;2023-06-26T05:08:31;99670.16;;;24.57;44.63
54806;BME280;62866;55.776;37.496;2023-06-26T05:10:57;99674.59;;;25.79;42.41
54806;BME280;62866;55.776;37.496;2023-06-26T05:13:26;99676.53;;;26.26;40.90
54806;BME280;62866;55.776;37.496;2023-06-26T05:15:52;99684.91;;;26.34;39.71
54806;BME280;62866;55.776;37.496;2023-06-26T05:18:17;99674.81;;;26.30;40.09
54806;BME280;62866;55.776;37.496;2023-06-26T05:20:43;99675.88;;;26.34;39.61
54806;BME280;62866;55.776;37.496;2023-06-26T05:23:11;99675.13;;;26.47;39.40
54806;BME280;62866;55.776;37.496;2023-06-26T05:25:37;99670.69;;;26.32;39.82
54806;BME280;62866;55.776;37.496;2023-06-26T05:28:04;99679.16;;;26.36;39.68
54806;BME280;62866;55.776;37.496;2023-06-26T05:30:35;99676.44;;;26.87;38.62
54806;BME280;62866;55.776;37.496;2023-06-26T05:33:02;99675.72;;;27.00;38.05
54806;BME280;62866;55.776;37.496;2023-06-26T05:35:30;99678.25;;;26.78;38.26
54806;BME280;62866;55.776;37.496;2023-06-26T05:37:57;99670.84;;;26.60;38.45
54806;BME280;62866;55.776;37.496;2023-06-26T05:40:23;99665.94;;;26.57;38.33
54806;BME280;62866;55.776;37.496;2023-06-26T05:42:49;99653.94;;;26.71;37.61
54806;BME280;62866;55.776;37.496;2023-06-26T05:45:15;99658.97;;;26.45;38.34
54806;BME280;62866;55.776;37.496;2023-06-26T05:47:41;99655.06;;;26.09;38.58
54806;BME280;62866;55.776;37.496;2023-06-26T05:50:09;99654.56;;;25.83;38.96
54806;BME280;62866;55.776;37.496;2023-06-26T05:52:35;99665.06;;;25.76;39.64
54806;BME280;62866;55.776;37.496;2023-06-26T05:55:01;99661.50;;;25.76;40.32
54806;BME280;62866;55.776;37.496;2023-06-26T05:57:28;99662.91;;;25.73;39.87
54806;BME280;62866;55.776;37.496;2023-06-26T05:59:54;99657.41;;;25.73;39.65
54806;BME280;62866;55.776;37.496;2023-06-26T06:02:20;99660.44;;;25.95;39.30
54806;BME280;62866;55.776;37.496;2023-06-26T06:04:46;99655.41;;;26.82;37.87
54806;BME280;62866;55.776;37.496;2023-06-26T06:07:11;99642.13;;;27.82;35.98
54806;BME280;62866;55.776;37.496;2023-06-26T06:09:37;99660.91;;;27.47;35.74
54806;BME280;62866;55.776;37.496;2023-06-26T06:12:04;99632.22;;;26.56;37.43
54806;BME280;62866;55.776;37.496;2023-06-26T06:14:31;99660.28;;;26.29;37.85
54806;BME280;62866;55.776;37.496;2023-06-26T06:16:56;99654.78;;;26.11;38.41
54806;BME280;62866;55.776;37.496;2023-06-26T06:19:22;99660.19;;;26.16;38.46
54806;BME280;62866;55.776;37.496;2023-06-26T06:21:48;99647.50;;;26.01;38.40
54806;BME280;62866;55.776;37.496;2023-06-26T06:24:13;99663.59;;;26.07;38.81
54806;BME280;62866;55.776;37.496;2023-06-26T06:26:39;99660.63;;;26.28;38.07
54806;BME280;62866;55.776;37.496;2023-06-26T06:29:04;99654.97;;;26.57;37.54
54806;BME280;62866;55.776;37.496;2023-06-26T06:31:31;99652.97;;;26.62;37.73
54806;BME280;62866;55.776;37.496;2023-06-26T06:33:56;99633.81;;;26.20;36.70
54806;BME280;62866;55.776;37.496;2023-06-26T06:36:22;99652.50;;;25.70;37.55
54806;BME280;62866;55.776;37.496;2023-06-26T06:38:47;99657.84;;;25.56;38.06
54806;BME280;62866;55.776;37.496;2023-06-26T06:41:13;99630.03;;;25.44;37.78
54806;BME280;62866;55.776;37.496;2023-06-26T06:43:39;99659.13;;;25.93;37.39
54806;BME280;62866;55.776;37.496;2023-06-26T06:46:05;99645.09;;;26.18;37.18
54806;BME280;62866;55.776;37.496;2023-06-26T06:48:31;99649.94;;;26.64;36.17
54806;BME280;62866;55.776;37.496;2023-06-26T06:50:56;99648.38;;;26.76;35.03
54806;BME280;62866;55.776;37.496;2023-06-26T06:53:22;99650.75;;;26.64;35.27
54806;BME280;62866;55.776;37.496;2023-06-26T06:55:48;99640.38;;;26.61;35.42
54806;BME280;62866;55.776;37.496;2023-06-26T06:58:14;99643.88;;;26.67;35.09
54806;BME280;62866;55.776;37.496;2023-06-26T07:00:42;99632.66;;;26.63;35.02
54806;BME280;62866;55.776;37.496;2023-06-26T07:03:07;99633.47;;;26.64;35.37
54806;BME280;62866;55.776;37.496;2023-06-26T07:05:33;99642.88;;;26.95;34.80
54806;BME280;62866;55.776;37.496;2023-06-26T07:07:58;99631.91;;;27.28;33.57
54806;BME280;62866;55.776;37.496;2023-06-26T07:10:24;99637.50;;;27.36;32.75
54806;BME280;62866;55.776;37.496;2023-06-26T07:12:49;99641.44;;;27.30;32.88
54806;BME280;62866;55.776;37.496;2023-06-26T07:15:16;99647.31;;;27.10;32.59
54806;BME280;62866;55.776;37.496;2023-06-26T07:17:42;99654.38;;;26.97;33.14
54806;BME280;62866;55.776;37.496;2023-06-26T07:20:08;99637.47;;;26.71;33.60
54806;BME280;62866;55.776;37.496;2023-06-26T07:22:36;99639.94;;;26.54;34.18
54806;BME280;62866;55.776;37.496;2023-06-26T07:25:02;99644.09;;;26.52;34.51
54806;BME280;62866;55.776;37.496;2023-06-26T07:27:29;99623.22;;;26.13;34.48
54806;BME280;62866;55.776;37.496;2023-06-26T07:29:54;99631.38;;;26.18;35.08
54806;BME280;62866;55.776;37.496;2023-06-26T07:32:20;99636.34;;;26.16;34.71
54806;BME280;62866;55.776;37.496;2023-06-26T07:34:45;99619.66;;;26.13;34.71
54806;BME280;62866;55.776;37.496;2023-06-26T07:37:11;99612.88;;;26.10;35.25
54806;BME280;62866;55.776;37.496;2023-06-26T07:39:36;99626.00;;;26.32;34.96
54806;BME280;62866;55.776;37.496;2023-06-26T07:42:02;99621.72;;;26.44;35.08
54806;BME280;62866;55.776;37.496;2023-06-26T07:44:27;99618.41;;;26.05;35.48
54806;BME280;62866;55.776;37.496;2023-06-26T07:46:53;99618.56;;;26.14;35.20
54806;BME280;62866;55.776;37.496;2023-06-26T07:49:18;99598.31;;;26.33;34.91
54806;BME280;62866;55.776;37.496;2023-06-26T07:51:44;99629.66;;;26.27;35.53
54806;BME280;62866;55.776;37.496;2023-06-26T07:54:09;99615.78;;;26.37;35.06
54806;BME280;62866;55.776;37.496;2023-06-26T07:59:19;99617.34;;;26.43;35.33
54806;BME280;62866;55.776;37.496;2023-06-26T08:01:46;99608.78;;;25.65;36.15
54806;BME280;62866;55.776;37.496;2023-06-26T08:04:11;99611.41;;;25.22;36.77
54806;BME280;62866;55.776;37.496;2023-06-26T08:06:37;99604.25;;;25.50;35.75
54806;BME280;62866;55.776;37.496;2023-06-26T08:09:08;99599.19;;;25.86;35.44
54806;BME280;62866;55.776;37.496;2023-06-26T08:11:34;99598.41;;;26.04;34.80
54806;BME280;62866;55.776;37.496;2023-06-26T08:13:59;99589.81;;;25.45;35.71
54806;BME280;62866;55.776;37.496;2023-06-26T08:16:25;99610.28;;;25.52;35.49
54806;BME280;62866;55.776;37.496;2023-06-26T08:18:51;99605.28;;;26.44;34.55
54806;BME280;62866;55.776;37.496;2023-06-26T08:21:16;99602.28;;;26.60;34.80
54806;BME280;62866;55.776;37.496;2023-06-26T08:23:42;99611.09;;;26.38;35.47
54806;BME280;62866;55.776;37.496;2023-06-26T08:26:07;99609.03;;;26.11;35.47
54806;BME280;62866;55.776;37.496;2023-06-26T08:28:33;99616.97;;;26.50;35.05
54806;BME280;62866;55.776;37.496;2023-06-26T08:30:59;99608.41;;;27.35;33.56
54806;BME280;62866;55.776;37.496;2023-06-26T08:33:25;99609.97;;;28.46;32.25
54806;BME280;62866;55.776;37.496;2023-06-26T08:35:51;99609.91;;;29.57;29.05
54806;BME280;62866;55.776;37.496;2023-06-26T08:38:16;99602.91;;;29.51;28.73
54806;BME280;62866;55.776;37.496;2023-06-26T08:40:42;99611.06;;;30.04;28.67
54806;BME280;62866;55.776;37.496;2023-06-26T08:43:08;99598.25;;;30.43;28.24
54806;BME280;62866;55.776;37.496;2023-06-26T08:45:33;99602.00;;;30.73;27.79
54806;BME280;62866;55.776;37.496;2023-06-26T08:48:00;99605.56;;;30.90;27.24
54806;BME280;62866;55.776;37.496;2023-06-26T08:50:29;99608.66;;;30.46;27.57
54806;BME280;62866;55.776;37.496;2023-06-26T08:53:07;99592.94;;;29.81;27.65
54806;BME280;62866;55.776;37.496;2023-06-26T08:55:36;99609.00;;;29.39;27.81
54806;BME280;62866;55.776;37.496;2023-06-26T08:58:04;99606.34;;;28.95;28.45
54806;BME280;62866;55.776;37.496;2023-06-26T09:00:30;99603.13;;;28.79;29.34
54806;BME280;62866;55.776;37.496;2023-06-26T09:02:56;99592.72;;;29.29;29.00
54806;BME280;62866;55.776;37.496;2023-06-26T09:05:22;99571.47;;;29.43;29.16
54806;BME280;62866;55.776;37.496;2023-06-26T09:07:47;99592.06;;;29.55;29.47
54806;BME280;62866;55.776;37.496;2023-06-26T09:10:13;99590.47;;;29.31;29.59
54806;BME280;62866;55.776;37.496;2023-06-26T09:12:38;99580.47;;;29.04;29.71
54806;BME280;62866;55.776;37.496;2023-06-26T09:15:05;99584.78;;;28.75;30.17
54806;BME280;62866;55.776;37.496;2023-06-26T09:17:34;99584.22;;;28.42;30.17
54806;BME280;62866;55.776;37.496;2023-06-26T09:20:04;99577.09;;;27.91;31.02
54806;BME280;62866;55.776;37.496;2023-06-26T09:22:33;99588.94;;;27.04;32.72
54806;BME280;62866;55.776;37.496;2023-06-26T09:25:01;99586.97;;;26.40;33.19
54806;BME280;62866;55.776;37.496;2023-06-26T09:27:26;99590.19;;;26.04;34.10
54806;BME280;62866;55.776;37.496;2023-06-26T09:29:52;99568.28;;;25.62;34.49
54806;BME280;62866;55.776;37.496;2023-06-26T09:32:17;99589.06;;;25.63;34.64
54806;BME280;62866;55.776;37.496;2023-06-26T09:34:43;99586.50;;;25.48;34.65
54806;BME280;62866;55.776;37.496;2023-06-26T09:37:12;99586.31;;;25.39;35.02
54806;BME280;62866;55.776;37.496;2023-06-26T09:39:38;99590.97;;;25.39;34.96
54806;BME280;62866;55.776;37.496;2023-06-26T09:42:04;99571.06;;;25.33;35.23
54806;BME280;62866;55.776;37.496;2023-06-26T09:44:33;99588.66;;;25.75;34.89
54806;BME280;62866;55.776;37.496;2023-06-26T09:46:59;99576.34;;;26.15;34.29
54806;BME280;62866;55.776;37.496;2023-06-26T09:49:27;99569.97;;;26.00;35.15
54806;BME280;62866;55.776;37.496;2023-06-26T09:51:53;99583.53;;;26.11;35.60
54806;BME280;62866;55.776;37.496;2023-06-26T09:54:21;99585.00;;;26.22;34.95
54806;BME280;62866;55.776;37.496;2023-06-26T09:56:47;99574.78;;;26.08;34.62
54806;BME280;62866;55.776;37.496;2023-06-26T09:59:13;99575.00;;;25.93;34.25
54806;BME280;62866;55.776;37.496;2023-06-26T10:01:45;99537.91;;;25.58;34.45
54806;BME280;62866;55.776;37.496;2023-06-26T10:04:11;99564.75;;;25.56;34.38
54806;BME280;62866;55.776;37.496;2023-06-26T10:06:41;99572.22;;;25.51;34.66
54806;BME280;62866;55.776;37.496;2023-06-26T10:09:11;99546.94;;;25.11;35.58
54806;BME280;62866;55.776;37.496;2023-06-26T10:11:43;99574.78;;;25.18;35.82
54806;BME280;62866;55.776;37.496;2023-06-26T10:14:11;99572.91;;;25.14;35.95
54806;BME280;62866;55.776;37.496;2023-06-26T10:16:39;99570.91;;;24.90;35.88
54806;BME280;62866;55.776;37.496;2023-06-26T10:19:09;99573.00;;;24.70;35.92
54806;BME280;62866;55.776;37.496;2023-06-26T10:21:37;99570.06;;;24.61;36.83
54806;BME280;62866;55.776;37.496;2023-06-26T10:24:05;99567.38;;;24.56;37.34
54806;BME280;62866;55.776;37.496;2023-06-26T10:26:34;99583.25;;;24.54;37.20
54806;BME280;62866;55.776;37.496;2023-06-26T10:29:01;99576.69;;;24.55;38.03
54806;BME280;62866;55.776;37.496;2023-06-26T10:31:28;99579.22;;;24.46;38.22
54806;BME280;62866;55.776;37.496;2023-06-26T10:33:55;99586.91;;;24.39;38.83
54806;BME280;62866;55.776;37.496;2023-06-26T10:36:28;99559.16;;;24.22;39.49
54806;BME280;62866;55.776;37.496;2023-06-26T10:39:04;99568.34;;;24.36;38.55
54806;BME280;62866;55.776;37.496;2023-06-26T10:41:37;99579.25;;;24.41;38.24
54806;BME280;62866;55.776;37.496;2023-06-26T10:44:10;99573.22;;;24.44;38.26
54806;BME280;62866;55.776;37.496;2023-06-26T10:47:02;99574.81;;;24.50;38.34
54806;BME280;62866;55.776;37.496;2023-06-26T10:49:29;99571.97;;;24.66;38.26
54806;BME280;62866;55.776;37.496;2023-06-26T10:52:00;99567.38;;;24.90;38.56
54806;BME280;62866;55.776;37.496;2023-06-26T10:54:29;99570.91;;;25.19;37.79
54806;BME280;62866;55.776;37.496;2023-06-26T10:56:55;99563.25;;;25.45;36.89
54806;BME280;62866;55.776;37.496;2023-06-26T10:59:26;99557.19;;;25.72;36.03
54806;BME280;62866;55.776;37.496;2023-06-26T11:02:04;99553.38;;;25.92;36.16
54806;BME280;62866;55.776;37.496;2023-06-26T11:04:46;99558.13;;;26.05;36.46
54806;BME280;62866;55.776;37.496;2023-06-26T11:07:20;99531.53;;;25.87;35.43
54806;BME280;62866;55.776;37.496;2023-06-26T11:10:02;99554.84;;;26.03;36.60
54806;BME280;62866;55.776;37.496;2023-06-26T11:12:43;99548.13;;;25.95;36.20
54806;BME280;62866;55.776;37.496;2023-06-26T11:15:17;99532.19;;;25.79;36.57
54806;BME280;62866;55.776;37.496;2023-06-26T11:17:44;99532.69;;;25.62;36.84
54806;BME280;62866;55.776;37.496;2023-06-26T11:20:14;99546.25;;;25.72;36.99
54806;BME280;62866;55.776;37.496;2023-06-26T11:22:41;99548.28;;;25.85;37.14
54806;BME280;62866;55.776;37.496;2023-06-26T11:25:08;99539.91;;;25.95;37.13
54806;BME280;62866;55.776;37.496;2023-06-26T11:27:40;99549.16;;;25.99;36.87
54806;BME280;62866;55.776;37.496;2023-06-26T11:30:06;99543.91;;;26.03;36.48
54806;BME280;62866;55.776;37.496;2023-06-26T11:32:32;99538.13;;;26.04;36.29
54806;BME280;62866;55.776;37.496;2023-06-26T11:35:01;99515.38;;;26.04;36.43
54806;BME280;62866;55.776;37.496;2023-06-26T11:37:26;99520.13;;;26.17;35.65
54806;BME280;62866;55.776;37.496;2023-06-26T11:39:52;99532.66;;;26.04;36.21
54806;BME280;62866;55.776;37.496;2023-06-26T11:42:19;99526.56;;;25.89;36.67
54806;BME280;62866;55.776;37.496;2023-06-26T11:44:45;99528.88;;;25.82;36.80
54806;BME280;62866;55.776;37.496;2023-06-26T11:47:18;99522.50;;;25.86;36.82
54806;BME280;62866;55.776;37.496;2023-06-26T11:49:45;99521.38;;;25.87;37.28
54806;BME280;62866;55.776;37.496;2023-06-26T11:52:11;99523.78;;;25.94;37.22
54806;BME280;62866;55.776;37.496;2023-06-26T11:54:36;99515.38;;;26.04;36.43
54806;BME280;62866;55.776;37.496;2023-06-26T11:57:03;99498.22;;;25.80;36.04
54806;BME280;62866;55.776;37.496;2023-06-26T11:59:37;99509.00;;;25.71;36.23
54806;BME280;62866;55.776;37.496;2023-06-26T12:02:10;99506.47;;;25.56;36.03
54806;BME280;62866;55.776;37.496;2023-06-26T12:04:37;99503.19;;;25.59;36.36
54806;BME280;62866;55.776;37.496;2023-06-26T12:07:05;99498.00;;;25.76;36.11
54806;BME280;62866;55.776;37.496;2023-06-26T12:09:33;99494.53;;;25.89;35.89
54806;BME280;62866;55.776;37.496;2023-06-26T12:11:59;99493.94;;;26.11;35.22
54806;BME280;62866;55.776;37.496;2023-06-26T12:14:26;99488.28;;;26.21;35.36
54806;BME280;62866;55.776;37.496;2023-06-26T12:16:54;99478.94;;;26.22;35.13
54806;BME280;62866;55.776;37.496;2023-06-26T12:19:24;99487.78;;;26.00;35.68
54806;BME280;62866;55.776;37.496;2023-06-26T12:21:50;99474.25;;;25.48;36.71
54806;BME280;62866;55.776;37.496;2023-06-26T12:24:21;99497.34;;;25.18;36.66
54806;BME280;62866;55.776;37.496;2023-06-26T12:26:54;99457.59;;;24.73;36.73
54806;BME280;62866;55.776;37.496;2023-06-26T12:29:29;99482.50;;;24.71;37.07
54806;BME280;62866;55.776;37.496;2023-06-26T12:31:56;99494.88;;;24.64;36.85
54806;BME280;62866;55.776;37.496;2023-06-26T12:34:33;99489.06;;;24.41;36.75
54806;BME280;62866;55.776;37.496;2023-06-26T12:37:06;99479.09;;;24.27;37.10
54806;BME280;62866;55.776;37.496;2023-06-26T12:39:49;99481.22;;;24.35;37.10
54806;BME280;62866;55.776;37.496;2023-06-26T12:42:18;99482.53;;;24.37;36.91
54806;BME280;62866;55.776;37.496;2023-06-26T12:44:44;99482.88;;;24.31;36.93
54806;BME280;62866;55.776;37.496;2023-06-26T12:47:09;99482.38;;;24.24;36.81
54806;BME280;62866;55.776;37.496;2023-06-26T12:49:40;99467.75;;;24.04;37.43
54806;BME280;62866;55.776;37.496;2023-06-26T12:52:08;99485.44;;;24.12;37.87
54806;BME280;62866;55.776;37.496;2023-06-26T12:54:35;99479.97;;;24.12;37.33
54806;BME280;62866;55.776;37.496;2023-06-26T12:57:01;99470.97;;;24.11;37.39